Time;durP1;ratioP1;P1;durP2;ratioP2;P2;SDS_P1;SDS_P2;PMS_P1;PMS_P2;Temp;Humidity;BMP_temperature;BMP_pressure;BME280_temperature;BME280_humidity;BME280_pressure;Samples;Min_cycle;Max_cycle;Signal;HPM_P1;HPM_P2
2022/11/25 00:00:38;;;;;;;16.10;2.40;;;;;1.90;93831.00;;;;7399773;19;20140;-76
2022/11/25 00:03:05;;;;;;;20.17;2.40;;;;;2.00;93840.00;;;;7398500;19;20156;-77
2022/11/25 00:05:33;;;;;;;15.80;2.53;;;;;1.90;93833.00;;;;7399538;19;20137;-77
2022/11/25 00:08:14;;;;;;;14.23;2.37;;;;;2.00;93839.00;;;;7397539;19;20567;-77
2022/11/25 00:10:48;;;;;;;13.13;2.57;;;;;2.20;93829.00;;;;7400073;19;20160;-78
2022/11/25 00:13:22;;;;;;;11.63;3.03;;;;;2.00;93832.00;;;;7399593;19;20177;-77
2022/11/25 00:15:49;;;;;;;9.10;2.37;;;;;2.10;93844.00;;;;7400452;19;20188;-77
2022/11/25 00:18:17;;;;;;;12.23;2.27;;;;;2.00;93832.00;;;;7397690;19;20513;-77
2022/11/25 00:20:51;;;;;;;11.60;2.87;;;;;2.00;93840.00;;;;7399654;19;20635;-77
2022/11/25 00:23:18;;;;;;;15.90;2.70;;;;;1.90;93838.00;;;;7400337;19;20152;-77
2022/11/25 00:25:46;;;;;;;7.07;2.80;;;;;2.00;93836.00;;;;7399927;19;20149;-75
2022/11/25 00:28:20;;;;;;;9.40;3.10;;;;;2.50;93837.00;;;;7398032;19;20160;-78
2022/11/25 00:30:48;;;;;;;14.20;2.80;;;;;2.50;93831.00;;;;7398699;19;20608;-76
2022/11/25 00:33:17;;;;;;;7.47;3.00;;;;;2.50;93831.00;;;;7400056;19;20592;-77
2022/11/25 00:35:51;;;;;;;11.60;2.80;;;;;2.80;93825.00;;;;7399809;19;20140;-77
2022/11/25 00:38:18;;;;;;;9.10;3.00;;;;;2.80;93820.00;;;;7400545;19;20650;-76
2022/11/25 00:44:34;;;;;;;23.87;3.37;;;;;2.90;93821.00;;;;7399391;19;20133;-77
2022/11/25 00:46:26;;;;;;;13.27;3.60;;;;;2.90;93807.00;;;;7401048;19;20640;-78
2022/11/25 00:49:00;;;;;;;13.27;3.23;;;;;2.90;93810.00;;;;7399859;19;20129;-78
2022/11/25 00:51:27;;;;;;;10.07;3.20;;;;;3.00;93811.00;;;;7397719;19;20509;-78
2022/11/25 00:53:55;;;;;;;13.50;3.47;;;;;3.10;93822.00;;;;7398791;19;20150;-78
2022/11/25 00:56:29;;;;;;;17.10;3.20;;;;;3.20;93822.00;;;;7398362;19;20495;-77
2022/11/25 00:58:57;;;;;;;9.83;3.23;;;;;3.10;93819.00;;;;7400552;19;20149;-78
2022/11/25 01:01:25;;;;;;;15.83;3.57;;;;;3.20;93831.00;;;;7397550;19;20188;-75
2022/11/25 01:03:59;;;;;;;11.13;3.67;;;;;3.20;93826.00;;;;7398273;19;20127;-77
2022/11/25 01:06:33;;;;;;;10.70;3.60;;;;;3.00;93825.00;;;;7396597;19;20216;-78
2022/11/25 01:09:14;;;;;;;12.37;3.40;;;;;3.10;93822.00;;;;7398487;19;20145;-77
2022/11/25 01:11:41;;;;;;;13.23;3.70;;;;;3.10;93831.00;;;;7393739;19;20129;-78
2022/11/25 01:14:15;;;;;;;12.53;3.10;;;;;3.00;93828.00;;;;7396202;19;20169;-77
2022/11/25 01:16:43;;;;;;;10.43;3.30;;;;;3.00;93838.00;;;;7399257;19;20128;-77
2022/11/25 01:19:11;;;;;;;9.63;3.23;;;;;3.10;93836.00;;;;7400065;19;20137;-78
2022/11/25 01:21:45;;;;;;;10.37;4.00;;;;;3.10;93839.00;;;;7398026;19;20141;-77
2022/11/25 01:24:14;;;;;;;7.73;3.70;;;;;3.10;93835.00;;;;7398300;19;20149;-77
2022/11/25 01:26:43;;;;;;;10.23;3.40;;;;;3.00;93841.00;;;;7398115;19;20128;-78
2022/11/25 01:29:18;;;;;;;9.53;2.77;;;;;3.20;93841.00;;;;7397986;19;20156;-77
2022/11/25 01:31:47;;;;;;;11.30;3.10;;;;;3.00;93839.00;;;;7399069;19;20150;-78
2022/11/25 01:34:20;;;;;;;14.80;3.57;;;;;2.90;93848.00;;;;7398338;19;20160;-79
2022/11/25 01:36:54;;;;;;;12.67;3.23;;;;;3.00;93846.00;;;;7397047;19;20147;-78
2022/11/25 01:39:24;;;;;;;11.73;2.67;;;;;3.00;93849.00;;;;7399236;19;20142;-78
2022/11/25 01:41:59;;;;;;;14.40;3.47;;;;;3.10;93843.00;;;;7398731;19;20142;-76
2022/11/25 01:44:37;;;;;;;11.43;2.77;;;;;3.10;93849.00;;;;7398851;19;20136;-79
2022/11/25 01:47:23;;;;;;;7.77;2.60;;;;;3.10;93848.00;;;;7399460;19;20497;-78
2022/11/25 01:50:04;;;;;;;13.23;3.00;;;;;3.30;93863.00;;;;7397225;19;20679;-78
2022/11/25 01:52:45;;;;;;;11.87;2.50;;;;;3.50;93861.00;;;;7397559;19;20132;-77
2022/11/25 01:55:25;;;;;;;12.67;2.70;;;;;3.20;93852.00;;;;7398036;19;20147;-78
2022/11/25 01:57:58;;;;;;;10.13;2.60;;;;;3.20;93843.00;;;;7398809;19;20136;-78
2022/11/25 02:00:32;;;;;;;9.03;2.50;;;;;3.40;93844.00;;;;7396596;19;20144;-76
2022/11/25 02:03:00;;;;;;;8.40;1.70;;;;;3.30;93844.00;;;;7399079;19;20125;-76
2022/11/25 02:05:47;;;;;;;9.63;2.20;;;;;3.50;93844.00;;;;7401315;19;20161;-76
2022/11/25 02:08:32;;;;;;;15.43;2.37;;;;;3.40;93834.00;;;;7401847;19;20502;-76
2022/11/25 02:11:06;;;;;;;7.57;2.13;;;;;3.50;93831.00;;;;7402896;19;20212;-76
2022/11/25 02:13:41;;;;;;;10.73;2.23;;;;;3.80;93836.00;;;;7401373;19;20176;-78
2022/11/25 02:16:08;;;;;;;5.60;1.93;;;;;4.00;93839.00;;;;7404429;19;20129;-78
2022/11/25 02:18:36;;;;;;;11.17;2.10;;;;;3.90;93834.00;;;;7404515;19;20139;-76
2022/11/25 02:21:13;;;;;;;7.13;2.03;;;;;4.00;93837.00;;;;7402317;19;20220;-77
2022/11/25 02:23:55;;;;;;;8.47;2.10;;;;;3.80;93840.00;;;;7401814;19;20142;-78
2022/11/25 02:26:29;;;;;;;5.93;1.83;;;;;3.50;93831.00;;;;7404184;19;20484;-76
2022/11/25 02:28:57;;;;;;;10.23;2.10;;;;;3.20;93834.00;;;;7402710;19;20612;-77
2022/11/25 02:31:25;;;;;;;9.00;1.67;;;;;3.20;93826.00;;;;7403752;19;20125;-76
2022/11/25 02:34:00;;;;;;;9.30;2.30;;;;;3.10;93826.00;;;;7403018;19;20576;-77
2022/11/25 02:36:27;;;;;;;8.17;1.80;;;;;3.30;93828.00;;;;7403927;19;20124;-77
2022/11/25 02:38:58;;;;;;;6.73;1.67;;;;;3.50;93822.00;;;;7403432;19;20161;-77
2022/11/25 02:41:37;;;;;;;10.10;1.70;;;;;3.90;93819.00;;;;7401377;19;20160;-77
2022/11/25 02:44:05;;;;;;;10.10;1.73;;;;;3.90;93821.00;;;;7400842;19;20154;-77
2022/11/25 02:46:39;;;;;;;5.87;1.53;;;;;3.90;93815.00;;;;7401510;19;20162;-76
2022/11/25 02:49:07;;;;;;;10.77;2.03;;;;;3.60;93810.00;;;;7401687;19;20490;-77
2022/11/25 02:51:38;;;;;;;10.63;1.93;;;;;3.50;93817.00;;;;7400580;19;20144;-77
2022/11/25 02:54:14;;;;;;;9.90;2.10;;;;;3.10;93811.00;;;;7403253;19;20136;-76
2022/11/25 02:56:42;;;;;;;7.87;1.70;;;;;2.90;93808.00;;;;7401386;19;20225;-77
2022/11/25 02:59:10;;;;;;;9.03;1.37;;;;;2.90;93804.00;;;;7402500;19;20968;-76
2022/11/25 03:01:44;;;;;;;8.80;1.60;;;;;2.80;93804.00;;;;7400442;19;20155;-76
2022/11/25 03:04:12;;;;;;;8.90;1.67;;;;;2.90;93794.00;;;;7401435;19;20133;-76
2022/11/25 03:06:39;;;;;;;7.37;1.90;;;;;3.10;93806.00;;;;7400368;19;20157;-76
2022/11/25 03:09:20;;;;;;;5.47;1.77;;;;;2.90;93800.00;;;;7401552;19;20141;-76
2022/11/25 03:14:40;;;;;;;7.43;1.77;;;;;3.30;93809.00;;;;7399440;19;20159;-76
2022/11/25 03:17:07;;;;;;;10.57;1.90;;;;;3.30;93810.00;;;;7400569;19;20137;-76
2022/11/25 03:19:35;;;;;;;7.20;1.50;;;;;3.20;93809.00;;;;7397886;19;20153;-76
2022/11/25 03:22:09;;;;;;;7.03;1.63;;;;;3.10;93799.00;;;;7399879;19;20147;-76
2022/11/25 03:24:37;;;;;;;11.63;1.97;;;;;3.00;93803.00;;;;7402398;19;20144;-76
2022/11/25 03:27:04;;;;;;;6.00;1.80;;;;;3.00;93796.00;;;;7401852;19;20136;-76
2022/11/25 03:29:38;;;;;;;9.90;1.60;;;;;2.90;93793.00;;;;7399195;19;20156;-76
2022/11/25 03:32:06;;;;;;;14.23;1.70;;;;;2.80;93792.00;;;;7400497;19;20193;-76
2022/11/25 03:34:36;;;;;;;11.50;2.03;;;;;2.70;93792.00;;;;7400826;19;20189;-76
2022/11/25 03:37:09;;;;;;;9.77;1.50;;;;;2.60;93798.00;;;;7400097;19;20155;-76
2022/11/25 03:39:37;;;;;;;6.03;1.70;;;;;2.80;93799.00;;;;7401685;19;20136;-77
2022/11/25 03:42:04;;;;;;;8.03;1.73;;;;;2.90;93797.00;;;;7398077;19;20156;-76
2022/11/25 03:44:38;;;;;;;11.70;1.73;;;;;3.00;93815.00;;;;7399910;19;20620;-77
2022/11/25 03:47:06;;;;;;;10.77;1.97;;;;;3.10;93820.00;;;;7399686;19;20215;-77
2022/11/25 03:49:40;;;;;;;9.17;1.60;;;;;3.30;93811.00;;;;7401022;19;20140;-76
2022/11/25 03:52:14;;;;;;;10.33;1.87;;;;;3.20;93809.00;;;;7400121;19;20170;-77
2022/11/25 03:54:42;;;;;;;7.50;1.40;;;;;3.20;93807.00;;;;7398312;19;20613;-76
2022/11/25 03:57:10;;;;;;;6.30;1.50;;;;;3.30;93797.00;;;;7399448;19;20181;-77
2022/11/25 03:59:44;;;;;;;12.30;2.10;;;;;3.60;93798.00;;;;7398396;19;20148;-77
2022/11/25 04:02:13;;;;;;;8.97;1.43;;;;;3.90;93794.00;;;;7398880;19;20160;-77
2022/11/25 04:04:41;;;;;;;10.43;1.90;;;;;3.90;93800.00;;;;7399930;19;20153;-77
2022/11/25 04:07:29;;;;;;;10.13;1.37;;;;;4.10;93789.00;;;;7399622;19;20156;-77
2022/11/25 04:09:56;;;;;;;6.47;1.30;;;;;4.20;93799.00;;;;7398168;19;20159;-77
2022/11/25 04:12:45;;;;;;;7.07;1.40;;;;;4.30;93789.00;;;;7399323;19;20192;-77
2022/11/25 04:15:15;;;;;;;14.43;1.87;;;;;4.20;93784.00;;;;7399957;19;20133;-77
2022/11/25 04:17:48;;;;;;;6.07;1.47;;;;;3.70;93784.00;;;;7397329;19;20624;-77
2022/11/25 04:20:16;;;;;;;6.13;1.40;;;;;3.40;93770.00;;;;7398339;19;20129;-77
2022/11/25 04:22:43;;;;;;;3.83;1.30;;;;;3.20;93778.00;;;;7399087;19;20141;-76
2022/11/25 04:25:17;;;;;;;4.80;1.13;;;;;3.00;93775.00;;;;7396998;19;20212;-77
2022/11/25 04:27:44;;;;;;;9.33;1.30;;;;;3.00;93771.00;;;;7398576;19;20129;-76
2022/11/25 04:30:12;;;;;;;7.80;1.43;;;;;3.00;93781.00;;;;7396273;19;20133;-77
2022/11/25 04:32:46;;;;;;;9.57;1.50;;;;;3.00;93786.00;;;;7396880;19;20501;-77
2022/11/25 04:35:14;;;;;;;6.53;1.30;;;;;2.90;93790.00;;;;7396856;19;20220;-77
2022/11/25 04:37:41;;;;;;;4.27;1.00;;;;;2.90;93794.00;;;;7398473;19;20136;-77
2022/11/25 04:40:15;;;;;;;5.80;1.13;;;;;2.90;93792.00;;;;7398269;19;20497;-77
2022/11/25 04:42:43;;;;;;;10.77;1.93;;;;;3.00;93786.00;;;;7394154;19;20243;-77
2022/11/25 04:45:14;;;;;;;8.83;1.77;;;;;2.80;93786.00;;;;7397748;19;20133;-76
2022/11/25 04:47:50;;;;;;;5.27;1.00;;;;;2.60;93778.00;;;;7396044;19;20533;-77
2022/11/25 04:50:21;;;;;;;7.67;1.40;;;;;2.60;93776.00;;;;7397655;19;20141;-76
2022/11/25 04:52:55;;;;;;;3.40;0.70;;;;;2.60;93775.00;;;;7393983;19;20127;-76
2022/11/25 04:55:23;;;;;;;6.20;1.20;;;;;2.60;93780.00;;;;7398857;19;20129;-77
2022/11/25 04:57:50;;;;;;;2.37;1.00;;;;;2.50;93774.00;;;;7397192;19;20152;-76
2022/11/25 05:00:24;;;;;;;7.43;1.50;;;;;2.30;93784.00;;;;7396943;19;20179;-77
2022/11/25 05:02:52;;;;;;;4.13;0.90;;;;;2.30;93789.00;;;;7397762;19;20228;-76
2022/11/25 05:05:20;;;;;;;6.93;1.13;;;;;2.30;93794.00;;;;7393359;19;20639;-76
2022/11/25 05:08:08;;;;;;;4.83;1.20;;;;;2.30;93793.00;;;;7390206;19;20152;-76
2022/11/25 05:10:42;;;;;;;4.70;0.83;;;;;2.30;93787.00;;;;7397418;19;20177;-76
2022/11/25 05:13:16;;;;;;;4.70;0.97;;;;;2.30;93793.00;;;;7395527;19;20157;-76
2022/11/25 05:15:44;;;;;;;7.40;1.13;;;;;2.30;93799.00;;;;7396882;19;20216;-76
2022/11/25 05:18:11;;;;;;;3.93;1.00;;;;;2.30;93797.00;;;;7396869;19;20162;-76
2022/11/25 05:20:45;;;;;;;6.67;1.70;;;;;2.20;93794.00;;;;7395379;19;20969;-77
2022/11/25 05:23:12;;;;;;;3.93;1.20;;;;;2.20;93797.00;;;;7397958;19;20136;-77
2022/11/25 05:25:40;;;;;;;3.40;1.03;;;;;2.20;93800.00;;;;7397066;19;20137;-77
2022/11/25 05:28:15;;;;;;;6.03;1.00;;;;;2.40;93806.00;;;;7396349;19;20144;-77
2022/11/25 05:30:44;;;;;;;9.07;1.00;;;;;2.60;93810.00;;;;7396263;19;20133;-77
2022/11/25 05:33:11;;;;;;;5.87;0.97;;;;;2.70;93804.00;;;;7395015;19;20581;-77
2022/11/25 05:35:57;;;;;;;4.33;1.10;;;;;2.60;93812.00;;;;7396784;19;20145;-77
2022/11/25 05:38:24;;;;;;;3.43;1.20;;;;;2.50;93812.00;;;;7402612;19;20164;-76
2022/11/25 05:41:04;;;;;;;5.10;1.70;;;;;2.50;93814.00;;;;7404308;19;20520;-75
2022/11/25 05:43:32;;;;;;;2.70;1.00;;;;;2.50;93814.00;;;;7401654;19;20219;-75
2022/11/25 05:46:06;;;;;;;8.53;1.40;;;;;2.70;93820.00;;;;7403817;19;20129;-75
2022/11/25 05:48:34;;;;;;;3.10;1.20;;;;;2.70;93811.00;;;;7405088;19;20136;-75
2022/11/25 05:51:04;;;;;;;6.07;1.10;;;;;2.60;93825.00;;;;7402960;19;20545;-75
2022/11/25 05:53:37;;;;;;;9.33;1.10;;;;;2.70;93820.00;;;;7401097;19;20721;-75
2022/11/25 05:56:06;;;;;;;4.37;1.30;;;;;2.60;93828.00;;;;7403651;19;20148;-75
2022/11/25 05:58:35;;;;;;;5.33;1.10;;;;;2.50;93825.00;;;;7403080;19;20153;-75
2022/11/25 06:01:11;;;;;;;5.70;1.17;;;;;2.50;93834.00;;;;7401185;19;20536;-75
2022/11/25 06:03:40;;;;;;;7.40;1.23;;;;;2.30;93839.00;;;;7403327;19;20228;-75
2022/11/25 06:06:09;;;;;;;3.37;0.97;;;;;2.20;93829.00;;;;7405155;19;20779;-75
2022/11/25 06:08:57;;;;;;;5.10;1.20;;;;;2.00;93840.00;;;;7401583;19;20148;-76
2022/11/25 06:11:25;;;;;;;7.30;1.27;;;;;2.00;93837.00;;;;7402513;19;20144;-75
2022/11/25 06:13:58;;;;;;;3.17;1.20;;;;;2.00;93836.00;;;;7401778;19;20524;-75
2022/11/25 06:16:27;;;;;;;10.80;1.10;;;;;2.20;93836.00;;;;7402667;19;20620;-76
2022/11/25 06:18:54;;;;;;;3.37;0.90;;;;;2.30;93841.00;;;;7403109;19;20464;-75
2022/11/25 06:21:28;;;;;;;4.40;0.90;;;;;2.50;93832.00;;;;7405025;19;20139;-75
2022/11/25 06:23:56;;;;;;;5.47;0.90;;;;;2.60;93836.00;;;;7404378;19;20145;-75
2022/11/25 06:26:23;;;;;;;2.77;1.00;;;;;2.70;93842.00;;;;7401462;19;20161;-76
2022/11/25 06:28:57;;;;;;;5.83;0.83;;;;;2.80;93847.00;;;;7405686;19;20129;-76
2022/11/25 06:31:26;;;;;;;7.13;1.10;;;;;2.90;93846.00;;;;7405413;19;20125;-76
2022/11/25 06:33:53;;;;;;;5.90;1.00;;;;;2.90;93859.00;;;;7403816;19;20612;-76
2022/11/25 06:36:27;;;;;;;4.70;1.17;;;;;3.00;93855.00;;;;7404357;19;20607;-75
2022/11/25 06:38:55;;;;;;;3.73;1.20;;;;;3.00;93860.00;;;;7405258;19;20128;-76
2022/11/25 06:41:23;;;;;;;6.80;1.17;;;;;3.50;93856.00;;;;7402142;19;20900;-76
2022/11/25 06:43:57;;;;;;;2.57;0.83;;;;;3.60;93866.00;;;;7404999;19;20149;-75
2022/11/25 06:46:25;;;;;;;5.70;1.53;;;;;3.50;93866.00;;;;7404289;19;20169;-76
2022/11/25 06:48:53;;;;;;;4.53;1.17;;;;;3.50;93870.00;;;;7400922;19;20176;-75
2022/11/25 06:51:27;;;;;;;6.60;1.10;;;;;3.50;93871.00;;;;7402517;19;20152;-76
2022/11/25 06:53:59;;;;;;;7.80;0.93;;;;;3.60;93860.00;;;;7400865;19;20655;-75
2022/11/25 06:56:28;;;;;;;4.57;1.00;;;;;3.90;93865.00;;;;7399677;19;20619;-75
2022/11/25 06:59:02;;;;;;;4.60;1.10;;;;;4.00;93864.00;;;;7399817;19;20125;-75
2022/11/25 07:01:30;;;;;;;3.70;1.43;;;;;4.10;93869.00;;;;7398711;19;20156;-77
2022/11/25 07:04:02;;;;;;;3.40;1.00;;;;;4.00;93871.00;;;;7399613;19;20651;-76
2022/11/25 07:06:36;;;;;;;11.00;0.80;;;;;3.90;93866.00;;;;7400101;19;20129;-75
2022/11/25 07:09:09;;;;;;;6.97;1.03;;;;;4.00;93868.00;;;;7397650;19;20169;-78
2022/11/25 07:11:44;;;;;;;2.20;0.90;;;;;4.10;93881.00;;;;7400181;19;20436;-76
2022/11/25 07:14:14;;;;;;;5.00;0.97;;;;;4.10;93884.00;;;;7400721;19;20484;-76
2022/11/25 07:16:44;;;;;;;8.47;1.87;;;;;4.30;93890.00;;;;7398076;19;20147;-76
2022/11/25 07:19:19;;;;;;;9.67;1.40;;;;;4.40;93897.00;;;;7402339;19;20128;-75
2022/11/25 07:21:49;;;;;;;6.67;1.23;;;;;4.40;93902.00;;;;7400074;19;20212;-76
2022/11/25 07:24:18;;;;;;;3.40;1.00;;;;;4.70;93907.00;;;;7400514;19;20135;-77
2022/11/25 07:26:52;;;;;;;4.87;1.00;;;;;4.70;93910.00;;;;7400244;19;20173;-77
2022/11/25 07:29:20;;;;;;;2.53;1.00;;;;;4.70;93907.00;;;;7401078;19;20137;-77
2022/11/25 07:32:10;;;;;;;1.67;0.77;;;;;4.90;93912.00;;;;7399527;19;20140;-78
2022/11/25 07:34:48;;;;;;;5.40;1.30;;;;;4.80;93909.00;;;;7398459;19;20129;-75
2022/11/25 07:37:16;;;;;;;3.37;0.80;;;;;4.80;93907.00;;;;7400695;19;20498;-76
2022/11/25 07:39:46;;;;;;;2.30;1.00;;;;;5.00;93912.00;;;;7401848;19;20573;-75
2022/11/25 07:42:24;;;;;;;4.07;0.90;;;;;5.00;93920.00;;;;7396698;19;20209;-76
2022/11/25 07:44:52;;;;;;;5.70;1.10;;;;;5.10;93926.00;;;;7399618;19;20609;-76
2022/11/25 07:47:19;;;;;;;3.00;0.80;;;;;5.10;93923.00;;;;7400205;19;20874;-77
2022/11/25 07:49:53;;;;;;;4.83;1.10;;;;;5.40;93926.00;;;;7400129;19;20150;-76
2022/11/25 07:52:20;;;;;;;6.03;1.20;;;;;5.40;93923.00;;;;7399505;19;20161;-76
2022/11/25 07:54:48;;;;;;;3.83;1.10;;;;;5.50;93916.00;;;;7398350;19;20572;-76
2022/11/25 07:57:22;;;;;;;5.77;1.17;;;;;5.60;93920.00;;;;7400514;19;20469;-76
2022/11/25 07:59:49;;;;;;;5.97;1.20;;;;;5.60;93912.00;;;;7396731;19;20220;-76
2022/11/25 08:02:17;;;;;;;4.90;1.03;;;;;5.70;93910.00;;;;7399910;19;20207;-76
2022/11/25 08:04:51;;;;;;;7.27;0.93;;;;;5.80;93906.00;;;;7398723;19;20514;-76
2022/11/25 08:07:24;;;;;;;5.00;1.00;;;;;6.10;93921.00;;;;7397745;19;20145;-77
2022/11/25 08:10:10;;;;;;;3.13;1.00;;;;;6.60;93911.00;;;;7398266;19;20476;-76
2022/11/25 08:12:37;;;;;;;4.67;1.17;;;;;7.10;93915.00;;;;7399518;19;20222;-76
2022/11/25 08:15:11;;;;;;;7.17;1.60;;;;;7.60;93919.00;;;;7395679;19;20556;-76
2022/11/25 08:17:38;;;;;;;4.87;1.70;;;;;7.60;93927.00;;;;7399922;19;20133;-75
2022/11/25 08:20:07;;;;;;;3.63;1.30;;;;;7.60;93927.00;;;;7398419;19;20672;-75
2022/11/25 08:22:41;;;;;;;3.60;1.40;;;;;7.50;93929.00;;;;7398500;19;20140;-76
2022/11/25 08:25:08;;;;;;;4.63;1.50;;;;;7.20;93924.00;;;;7398252;19;20149;-76
2022/11/25 08:27:36;;;;;;;4.40;1.10;;;;;7.00;93935.00;;;;7400472;19;20129;-75
2022/11/25 08:30:10;;;;;;;4.13;0.93;;;;;6.90;93938.00;;;;7397761;19;20129;-76
2022/11/25 08:32:39;;;;;;;4.53;0.97;;;;;6.90;93933.00;;;;7397032;19;20157;-76
2022/11/25 08:35:07;;;;;;;1.77;1.00;;;;;6.80;93941.00;;;;7394653;19;20155;-75
2022/11/25 08:37:41;;;;;;;4.20;1.10;;;;;6.60;93942.00;;;;7397598;19;20135;-76
2022/11/25 08:40:10;;;;;;;2.97;1.13;;;;;6.60;93946.00;;;;7397125;19;20125;-77
2022/11/25 08:42:37;;;;;;;6.00;1.47;;;;;6.60;93952.00;;;;7396772;19;20135;-77
2022/11/25 08:45:12;;;;;;;2.67;1.07;;;;;6.60;93947.00;;;;7393387;19;20207;-77
2022/11/25 08:47:40;;;;;;;9.23;1.30;;;;;6.60;93952.00;;;;7392831;19;20148;-76
2022/11/25 08:50:12;;;;;;;6.13;1.50;;;;;6.60;93958.00;;;;7395182;19;20620;-75
2022/11/25 08:52:46;;;;;;;7.00;1.53;;;;;6.80;93957.00;;;;7398970;19;20140;-76
2022/11/25 08:55:14;;;;;;;7.50;1.80;;;;;6.80;93961.00;;;;7395686;19;20203;-76
2022/11/25 08:57:42;;;;;;;5.90;1.30;;;;;6.80;93960.00;;;;7396941;19;20220;-75
2022/11/25 09:00:16;;;;;;;6.90;1.77;;;;;6.90;93961.00;;;;7396743;19;20135;-76
2022/11/25 09:02:44;;;;;;;6.07;1.80;;;;;7.00;93976.00;;;;7397825;19;20153;-76
2022/11/25 09:05:16;;;;;;;5.67;1.40;;;;;7.00;93972.00;;;;7399571;19;20573;-76
2022/11/25 09:07:56;;;;;;;3.50;1.40;;;;;7.20;93977.00;;;;7398222;19;20631;-76
2022/11/25 09:10:32;;;;;;;4.87;1.73;;;;;7.10;93969.00;;;;7396141;19;20480;-75
2022/11/25 09:13:06;;;;;;;4.73;1.50;;;;;7.40;93963.00;;;;7397561;19;20132;-75
2022/11/25 09:15:34;;;;;;;10.17;2.73;;;;;7.40;93969.00;;;;7393018;19;20149;-77
2022/11/25 09:18:09;;;;;;;5.60;1.60;;;;;7.40;93971.00;;;;7397286;19;20177;-75
2022/11/25 09:20:43;;;;;;;7.43;1.97;;;;;7.60;93971.00;;;;7396493;19;20137;-77
2022/11/25 09:23:10;;;;;;;4.93;1.47;;;;;7.80;93971.00;;;;7396722;19;20125;-77
2022/11/25 09:25:38;;;;;;;4.37;1.47;;;;;7.80;93965.00;;;;7395919;19;20652;-77
2022/11/25 09:28:12;;;;;;;6.07;1.53;;;;;8.20;93974.00;;;;7397197;19;20204;-78
2022/11/25 09:30:39;;;;;;;10.80;1.77;;;;;8.50;93972.00;;;;7396033;19;20212;-76
2022/11/25 09:33:07;;;;;;;3.77;1.70;;;;;8.50;93969.00;;;;7396612;19;20612;-74
2022/11/25 09:35:42;;;;;;;4.67;1.60;;;;;8.40;93973.00;;;;7396106;19;20131;-75
2022/11/25 09:38:10;;;;;;;4.65;1.67;;;;;8.70;93973.00;;;;7396113;19;20125;-76
2022/11/25 09:40:55;;;;;;;7.27;1.90;;;;;8.80;93974.00;;;;7395597;19;20604;-75
2022/11/25 09:47:28;;;;;;;5.03;1.58;;;;;8.80;93975.00;;;;7397484;19;20148;-75
2022/11/25 09:50:45;;;;;;;4.10;1.60;;;;;9.70;93977.00;;;;7394921;19;20151;-76
2022/11/25 09:53:50;;;;;;;6.15;2.03;;;;;9.90;93990.00;;;;7397095;19;20136;-76
2022/11/25 09:56:36;;;;;;;3.83;1.65;;;;;9.70;93987.00;;;;7395868;19;20165;-76
2022/11/25 09:59:12;;;;;;;3.70;1.48;;;;;9.30;93994.00;;;;7394511;19;20155;-75
2022/11/25 10:01:57;;;;;;;4.00;1.40;;;;;9.00;93990.00;;;;7396337;19;20528;-76
2022/11/25 10:04:45;;;;;;;4.32;1.60;;;;;9.20;93986.00;;;;7395268;19;20144;-75
2022/11/25 10:07:48;;;;;;;6.80;2.10;;;;;9.20;93994.00;;;;7392572;19;20157;-75
2022/11/25 10:10:41;;;;;;;5.68;1.80;;;;;9.20;93998.00;;;;7393272;19;20604;-75
2022/11/25 10:13:45;;;;;;;2.38;1.25;;;;;9.10;94000.00;;;;7393333;19;20180;-75
2022/11/25 10:16:25;;;;;;;5.47;1.40;;;;;9.30;94005.00;;;;7392270;19;20152;-75
2022/11/25 10:19:05;;;;;;;3.10;1.10;;;;;9.10;94017.00;;;;7395645;19;20462;-75
2022/11/25 10:21:33;;;;;;;2.63;1.00;;;;;8.80;94009.00;;;;7392887;19;20503;-74
2022/11/25 10:24:13;;;;;;;5.38;0.98;;;;;8.70;94012.00;;;;7398402;19;20157;-75
2022/11/25 10:26:44;;;;;;;3.60;1.17;;;;;8.70;93999.00;;;;7403206;19;20155;-77
2022/11/25 10:29:29;;;;;;;2.33;1.20;;;;;8.80;94003.00;;;;7403385;19;20152;-77
2022/11/25 10:32:21;;;;;;;2.10;0.88;;;;;8.90;94008.00;;;;7404746;19;20466;-76
2022/11/25 10:35:01;;;;;;;4.90;1.00;;;;;8.90;94013.00;;;;7400293;19;20198;-76
2022/11/25 10:37:38;;;;;;;4.05;1.02;;;;;8.70;94018.00;;;;7403213;19;20477;-76
2022/11/25 10:40:16;;;;;;;1.83;0.82;;;;;8.60;94029.00;;;;7403682;19;20144;-76
2022/11/25 10:42:44;;;;;;;1.90;1.10;;;;;8.50;94030.00;;;;7400916;19;20723;-76
2022/11/25 10:45:11;;;;;;;1.98;1.02;;;;;8.30;94027.00;;;;7402275;19;20133;-76
2022/11/25 10:48:05;;;;;;;3.20;0.65;;;;;8.10;94031.00;;;;7403440;19;20152;-75
2022/11/25 10:50:50;;;;;;;1.80;0.90;;;;;8.20;94037.00;;;;7399212;19;20803;-76
2022/11/25 10:53:30;;;;;;;2.93;0.90;;;;;7.90;94032.00;;;;7400873;19;20528;-75
2022/11/25 10:56:02;;;;;;;2.05;0.90;;;;;7.90;94037.00;;;;7398112;19;20145;-76
2022/11/25 10:58:38;;;;;;;4.17;0.93;;;;;8.00;94039.00;;;;7399094;19;20169;-76
2022/11/25 11:01:21;;;;;;;1.63;0.77;;;;;7.90;94046.00;;;;7399158;19;20117;-77
2022/11/25 11:04:13;;;;;;;0.47;0.47;;;;;7.70;94046.00;;;;7402349;19;20588;-77
2022/11/25 11:06:46;;;;;;;1.10;0.60;;;;;7.70;94047.00;;;;7397740;19;20145;-77
2022/11/25 11:09:45;;;;;;;1.60;0.80;;;;;7.90;94050.00;;;;7396643;19;20543;-76
2022/11/25 11:12:24;;;;;;;0.90;0.60;;;;;7.80;94052.00;;;;7396634;19;20153;-76
2022/11/25 11:15:22;;;;;;;2.00;0.97;;;;;8.00;94052.00;;;;7398295;19;20169;-77
2022/11/25 11:17:50;;;;;;;2.10;0.93;;;;;8.10;94055.00;;;;7398049;19;20147;-76
2022/11/25 11:20:27;;;;;;;1.70;0.80;;;;;8.20;94056.00;;;;7396662;19;20208;-76
2022/11/25 11:22:57;;;;;;;2.93;1.00;;;;;8.00;94056.00;;;;7398953;19;20598;-75
2022/11/25 11:25:41;;;;;;;4.30;0.90;;;;;8.40;94053.00;;;;7398038;19;20133;-75
2022/11/25 11:28:33;;;;;;;2.57;1.20;;;;;8.00;94053.00;;;;7397673;19;20149;-76
2022/11/25 11:31:23;;;;;;;1.63;0.83;;;;;7.90;94061.00;;;;7397511;19;20644;-76
2022/11/25 11:34:17;;;;;;;2.23;1.00;;;;;7.80;94061.00;;;;7400377;19;20566;-76
2022/11/25 11:36:59;;;;;;;2.93;0.80;;;;;7.80;94059.00;;;;7399273;19;20132;-76
2022/11/25 11:39:45;;;;;;;2.37;0.70;;;;;7.80;94066.00;;;;7397606;19;20159;-75
2022/11/25 11:42:35;;;;;;;2.90;0.90;;;;;7.60;94068.00;;;;7394797;19;20206;-75
2022/11/25 11:45:15;;;;;;;4.23;1.33;;;;;7.50;94072.00;;;;7397285;19;20129;-75
2022/11/25 11:48:09;;;;;;;3.13;0.97;;;;;7.50;94076.00;;;;7397070;19;20193;-76
2022/11/25 11:50:47;;;;;;;0.83;0.70;;;;;7.30;94079.00;;;;7396366;19;20169;-74
2022/11/25 11:53:33;;;;;;;1.67;0.90;;;;;7.20;94086.00;;;;7399308;19;20186;-74
2022/11/25 11:56:06;;;;;;;4.57;1.00;;;;;6.80;94083.00;;;;7397884;19;20132;-75
2022/11/25 11:59:24;;;;;;;1.43;0.77;;;;;6.90;94090.00;;;;7398519;19;20156;-75
2022/11/25 12:02:14;;;;;;;2.00;1.10;;;;;6.80;94086.00;;;;7394235;19;20150;-75
2022/11/25 12:05:09;;;;;;;2.20;1.17;;;;;7.00;94084.00;;;;7398827;19;20159;-76
2022/11/25 12:08:00;;;;;;;2.53;1.10;;;;;6.80;94078.00;;;;7398854;19;20592;-76
2022/11/25 12:10:46;;;;;;;3.60;1.60;;;;;6.80;94080.00;;;;7397582;19;20613;-76
2022/11/25 12:13:37;;;;;;;6.17;2.23;;;;;6.70;94088.00;;;;7394171;19;20184;-76
2022/11/25 12:16:54;;;;;;;5.67;2.13;;;;;6.60;94097.00;;;;7395224;19;20612;-76
2022/11/25 12:19:59;;;;;;;5.60;1.70;;;;;6.70;94097.00;;;;7393405;19;20188;-75
2022/11/25 12:22:56;;;;;;;5.87;1.67;;;;;6.50;94091.00;;;;7397127;19;20136;-75
2022/11/25 12:25:33;;;;;;;6.63;2.80;;;;;6.40;94099.00;;;;7396857;19;20161;-75
2022/11/25 12:28:28;;;;;;;9.03;2.40;;;;;6.60;94097.00;;;;7394084;19;20132;-75
2022/11/25 12:31:14;;;;;;;7.07;2.17;;;;;6.40;94097.00;;;;7394350;19;20186;-76
2022/11/25 12:34:12;;;;;;;5.93;2.47;;;;;6.80;94097.00;;;;7398354;19;20148;-76
2022/11/25 12:36:43;;;;;;;4.73;2.30;;;;;7.00;94093.00;;;;7394606;19;20173;-76
2022/11/25 12:40:00;;;;;;;6.20;2.33;;;;;7.20;94105.00;;;;7394057;19;20152;-76
2022/11/25 12:42:29;;;;;;;5.80;2.23;;;;;7.20;94100.00;;;;7393987;19;20640;-76
2022/11/25 12:45:06;;;;;;;9.97;2.70;;;;;7.40;94102.00;;;;7395462;19;20153;-76
2022/11/25 12:47:34;;;;;;;4.73;2.10;;;;;7.50;94115.00;;;;7395026;19;20592;-76
2022/11/25 12:50:02;;;;;;;8.90;2.80;;;;;7.30;94112.00;;;;7393066;19;20169;-75
2022/11/25 12:52:54;;;;;;;8.53;2.77;;;;;7.50;94118.00;;;;7395959;19;20172;-76
2022/11/25 12:55:24;;;;;;;8.63;3.00;;;;;8.10;94119.00;;;;7397095;19;20715;-75
2022/11/25 12:58:23;;;;;;;5.60;2.27;;;;;8.30;94127.00;;;;7396911;19;20212;-74
2022/11/25 13:01:19;;;;;;;8.77;2.33;;;;;7.90;94141.00;;;;7393905;19;20162;-76
2022/11/25 13:04:18;;;;;;;12.80;2.70;;;;;7.80;94152.00;;;;7399287;19;20139;-74
2022/11/25 13:07:03;;;;;;;9.13;3.30;;;;;7.50;94144.00;;;;7397116;19;20128;-74
2022/11/25 13:10:34;;;;;;;9.10;2.80;;;;;7.10;94152.00;;;;7396627;19;20168;-74
2022/11/25 13:13:29;;;;;;;6.60;2.00;;;;;6.80;94160.00;;;;7396790;19;20174;-77
2022/11/25 13:16:06;;;;;;;8.00;2.13;;;;;6.90;94167.00;;;;7394931;19;20228;-76